sensor_id;sensor_type;location;lat;lon;timestamp;pressure;altitude;pressure_sealevel;temperature;humidity
65151;BME280;51918;51.856;0.150;2023-03-22T00:04:17;99459.38;;;9.91;97.30
65151;BME280;51918;51.856;0.150;2023-03-22T00:09:20;99447.63;;;9.81;98.50
65151;BME280;51918;51.856;0.150;2023-03-22T00:14:20;99451.34;;;9.79;98.51
65151;BME280;51918;51.856;0.150;2023-03-22T00:19:21;99440.03;;;9.73;99.20
65151;BME280;51918;51.856;0.150;2023-03-22T00:24:23;99410.75;;;9.89;98.65
65151;BME280;51918;51.856;0.150;2023-03-22T00:29:24;99415.00;;;9.82;99.37
65151;BME280;51918;51.856;0.150;2023-03-22T00:34:24;99408.09;;;9.82;98.97
65151;BME280;51918;51.856;0.150;2023-03-22T00:39:26;99392.66;;;9.97;98.27
65151;BME280;51918;51.856;0.150;2023-03-22T00:44:27;99396.56;;;9.93;98.68
65151;BME280;51918;51.856;0.150;2023-03-22T00:49:27;99390.50;;;10.01;99.30
65151;BME280;51918;51.856;0.150;2023-03-22T00:54:29;99368.25;;;9.65;100.00
65151;BME280;51918;51.856;0.150;2023-03-22T00:59:30;99356.25;;;9.72;100.00
65151;BME280;51918;51.856;0.150;2023-03-22T01:04:31;99354.50;;;9.73;100.00
65151;BME280;51918;51.856;0.150;2023-03-22T01:09:33;99352.53;;;9.75;100.00
65151;BME280;51918;51.856;0.150;2023-03-22T01:14:34;99312.97;;;9.69;100.00
65151;BME280;51918;51.856;0.150;2023-03-22T01:19:36;99307.59;;;9.85;100.00
65151;BME280;51918;51.856;0.150;2023-03-22T01:24:38;99283.91;;;9.62;100.00
65151;BME280;51918;51.856;0.150;2023-03-22T01:29:38;99279.00;;;9.67;100.00
65151;BME280;51918;51.856;0.150;2023-03-22T01:34:39;99280.09;;;9.58;100.00
65151;BME280;51918;51.856;0.150;2023-03-22T01:39:41;99271.47;;;9.65;100.00
65151;BME280;51918;51.856;0.150;2023-03-22T01:44:42;99266.84;;;9.54;100.00
65151;BME280;51918;51.856;0.150;2023-03-22T01:49:43;99273.03;;;9.60;100.00
65151;BME280;51918;51.856;0.150;2023-03-22T01:54:47;99258.41;;;9.60;100.00
65151;BME280;51918;51.856;0.150;2023-03-22T01:59:49;99242.75;;;9.83;100.00
65151;BME280;51918;51.856;0.150;2023-03-22T02:04:50;99235.28;;;9.60;100.00
65151;BME280;51918;51.856;0.150;2023-03-22T02:09:52;99242.59;;;9.63;100.00
65151;BME280;51918;51.856;0.150;2023-03-22T02:14:59;99227.13;;;9.50;100.00
65151;BME280;51918;51.856;0.150;2023-03-22T02:20:47;99220.31;;;9.64;100.00
65151;BME280;51918;51.856;0.150;2023-03-22T02:31:48;99181.59;;;9.65;100.00
65151;BME280;51918;51.856;0.150;2023-03-22T02:37:33;99179.63;;;9.67;100.00
65151;BME280;51918;51.856;0.150;2023-03-22T02:42:49;99166.72;;;9.54;100.00
65151;BME280;51918;51.856;0.150;2023-03-22T02:47:55;99157.81;;;9.50;100.00
65151;BME280;51918;51.856;0.150;2023-03-22T02:53:03;99153.78;;;9.69;100.00
65151;BME280;51918;51.856;0.150;2023-03-22T02:58:13;99149.22;;;9.64;100.00
65151;BME280;51918;51.856;0.150;2023-03-22T03:03:15;99137.53;;;9.55;100.00
65151;BME280;51918;51.856;0.150;2023-03-22T03:08:18;99141.44;;;9.51;100.00
65151;BME280;51918;51.856;0.150;2023-03-22T03:13:21;99130.22;;;9.59;100.00
65151;BME280;51918;51.856;0.150;2023-03-22T03:18:34;99134.16;;;9.55;100.00
65151;BME280;51918;51.856;0.150;2023-03-22T03:23:46;99134.81;;;9.70;100.00
65151;BME280;51918;51.856;0.150;2023-03-22T03:28:52;99124.91;;;9.60;100.00
65151;BME280;51918;51.856;0.150;2023-03-22T03:34:01;99112.25;;;9.59;100.00
65151;BME280;51918;51.856;0.150;2023-03-22T03:39:08;99110.00;;;9.42;100.00
65151;BME280;51918;51.856;0.150;2023-03-22T03:44:14;99123.69;;;9.56;100.00
65151;BME280;51918;51.856;0.150;2023-03-22T03:49:16;99097.25;;;9.56;100.00
65151;BME280;51918;51.856;0.150;2023-03-22T03:54:17;99107.97;;;9.66;100.00
65151;BME280;51918;51.856;0.150;2023-03-22T03:59:19;99107.72;;;9.61;100.00
65151;BME280;51918;51.856;0.150;2023-03-22T04:04:21;99095.66;;;9.61;100.00
65151;BME280;51918;51.856;0.150;2023-03-22T04:09:23;99091.50;;;9.54;100.00
65151;BME280;51918;51.856;0.150;2023-03-22T04:14:25;99094.19;;;9.39;100.00
65151;BME280;51918;51.856;0.150;2023-03-22T04:19:26;99092.00;;;9.36;100.00
65151;BME280;51918;51.856;0.150;2023-03-22T04:24:27;99089.63;;;9.34;100.00
65151;BME280;51918;51.856;0.150;2023-03-22T04:29:29;99086.72;;;9.51;100.00
65151;BME280;51918;51.856;0.150;2023-03-22T04:34:32;99083.41;;;9.57;100.00
65151;BME280;51918;51.856;0.150;2023-03-22T04:39:33;99070.78;;;9.55;100.00
65151;BME280;51918;51.856;0.150;2023-03-22T04:44:35;99082.59;;;9.50;100.00
65151;BME280;51918;51.856;0.150;2023-03-22T04:49:35;99082.63;;;9.56;100.00
65151;BME280;51918;51.856;0.150;2023-03-22T04:54:36;99091.97;;;9.71;100.00
65151;BME280;51918;51.856;0.150;2023-03-22T04:59:39;99086.03;;;9.70;100.00
65151;BME280;51918;51.856;0.150;2023-03-22T05:04:39;99091.25;;;9.83;100.00
65151;BME280;51918;51.856;0.150;2023-03-22T05:09:40;99079.59;;;9.87;100.00
65151;BME280;51918;51.856;0.150;2023-03-22T05:14:42;99084.91;;;9.86;100.00
65151;BME280;51918;51.856;0.150;2023-03-22T05:19:45;99081.50;;;9.72;100.00
65151;BME280;51918;51.856;0.150;2023-03-22T05:24:45;99081.13;;;9.75;100.00
65151;BME280;51918;51.856;0.150;2023-03-22T05:29:47;99070.56;;;9.57;100.00
65151;BME280;51918;51.856;0.150;2023-03-22T05:34:48;99079.66;;;9.59;100.00
65151;BME280;51918;51.856;0.150;2023-03-22T05:39:49;99078.66;;;9.54;100.00
65151;BME280;51918;51.856;0.150;2023-03-22T05:44:51;99083.03;;;9.60;100.00
65151;BME280;51918;51.856;0.150;2023-03-22T05:49:51;99075.94;;;9.62;100.00
65151;BME280;51918;51.856;0.150;2023-03-22T05:54:51;99085.63;;;9.60;100.00
65151;BME280;51918;51.856;0.150;2023-03-22T05:59:53;99078.75;;;9.74;100.00
65151;BME280;51918;51.856;0.150;2023-03-22T06:04:53;99081.84;;;9.56;100.00
65151;BME280;51918;51.856;0.150;2023-03-22T06:09:54;99086.97;;;9.56;100.00
65151;BME280;51918;51.856;0.150;2023-03-22T06:14:56;99087.75;;;9.56;100.00
65151;BME280;51918;51.856;0.150;2023-03-22T06:19:56;99099.09;;;9.75;100.00
65151;BME280;51918;51.856;0.150;2023-03-22T06:24:57;99095.78;;;9.81;100.00
65151;BME280;51918;51.856;0.150;2023-03-22T06:29:59;99091.00;;;9.78;100.00
65151;BME280;51918;51.856;0.150;2023-03-22T06:34:59;99092.94;;;9.69;100.00
65151;BME280;51918;51.856;0.150;2023-03-22T06:40:00;99089.47;;;9.84;100.00
65151;BME280;51918;51.856;0.150;2023-03-22T06:45:03;99078.66;;;10.02;100.00
65151;BME280;51918;51.856;0.150;2023-03-22T06:50:04;99079.66;;;9.94;100.00
65151;BME280;51918;51.856;0.150;2023-03-22T06:55:05;99068.41;;;10.08;100.00
65151;BME280;51918;51.856;0.150;2023-03-22T07:00:09;99045.97;;;9.82;100.00
65151;BME280;51918;51.856;0.150;2023-03-22T07:05:10;99051.13;;;9.82;100.00
65151;BME280;51918;51.856;0.150;2023-03-22T07:10:11;99049.06;;;10.13;100.00
65151;BME280;51918;51.856;0.150;2023-03-22T07:15:14;99046.66;;;10.04;100.00
65151;BME280;51918;51.856;0.150;2023-03-22T07:20:14;99002.19;;;9.91;100.00
65151;BME280;51918;51.856;0.150;2023-03-22T07:25:15;99044.69;;;10.00;100.00
65151;BME280;51918;51.856;0.150;2023-03-22T07:30:17;99014.25;;;9.97;100.00
65151;BME280;51918;51.856;0.150;2023-03-22T07:35:18;99043.66;;;9.87;100.00
65151;BME280;51918;51.856;0.150;2023-03-22T07:40:19;99073.38;;;10.23;100.00
65151;BME280;51918;51.856;0.150;2023-03-22T07:45:21;99080.91;;;10.32;100.00
65151;BME280;51918;51.856;0.150;2023-03-22T07:50:22;99088.44;;;10.26;100.00
65151;BME280;51918;51.856;0.150;2023-03-22T07:55:23;99089.56;;;10.17;100.00
65151;BME280;51918;51.856;0.150;2023-03-22T08:00:25;99094.16;;;10.28;100.00
65151;BME280;51918;51.856;0.150;2023-03-22T08:05:25;99089.19;;;10.20;100.00
65151;BME280;51918;51.856;0.150;2023-03-22T08:10:26;99102.06;;;10.34;100.00
65151;BME280;51918;51.856;0.150;2023-03-22T08:15:28;99102.84;;;10.34;100.00
65151;BME280;51918;51.856;0.150;2023-03-22T08:20:29;99110.81;;;10.53;100.00
65151;BME280;51918;51.856;0.150;2023-03-22T08:25:30;99102.91;;;10.61;100.00
65151;BME280;51918;51.856;0.150;2023-03-22T08:30:32;99104.06;;;10.45;100.00
65151;BME280;51918;51.856;0.150;2023-03-22T08:35:33;99101.13;;;10.68;100.00
65151;BME280;51918;51.856;0.150;2023-03-22T08:40:34;99098.56;;;10.68;100.00
65151;BME280;51918;51.856;0.150;2023-03-22T08:45:36;99097.59;;;10.76;100.00
65151;BME280;51918;51.856;0.150;2023-03-22T08:50:36;99089.25;;;10.54;100.00
65151;BME280;51918;51.856;0.150;2023-03-22T08:55:37;99083.72;;;10.77;100.00
65151;BME280;51918;51.856;0.150;2023-03-22T09:00:39;99090.66;;;10.63;100.00
65151;BME280;51918;51.856;0.150;2023-03-22T09:05:39;99102.91;;;10.87;100.00
65151;BME280;51918;51.856;0.150;2023-03-22T09:10:40;99115.59;;;10.89;100.00
65151;BME280;51918;51.856;0.150;2023-03-22T09:15:43;99129.63;;;11.06;100.00
65151;BME280;51918;51.856;0.150;2023-03-22T09:20:45;99131.22;;;11.21;100.00
65151;BME280;51918;51.856;0.150;2023-03-22T09:25:46;99133.97;;;11.13;100.00
65151;BME280;51918;51.856;0.150;2023-03-22T09:30:48;99143.69;;;11.10;100.00
65151;BME280;51918;51.856;0.150;2023-03-22T09:35:49;99143.31;;;11.34;100.00
65151;BME280;51918;51.856;0.150;2023-03-22T09:40:52;99142.66;;;11.51;100.00
65151;BME280;51918;51.856;0.150;2023-03-22T09:45:54;99141.66;;;11.66;100.00
65151;BME280;51918;51.856;0.150;2023-03-22T09:50:55;99136.25;;;11.74;100.00
65151;BME280;51918;51.856;0.150;2023-03-22T09:56:00;99151.06;;;11.92;100.00
65151;BME280;51918;51.856;0.150;2023-03-22T10:01:08;99146.44;;;12.07;100.00
65151;BME280;51918;51.856;0.150;2023-03-22T10:06:17;99151.50;;;12.27;100.00
65151;BME280;51918;51.856;0.150;2023-03-22T10:11:23;99141.84;;;12.54;100.00
65151;BME280;51918;51.856;0.150;2023-03-22T10:16:28;99143.72;;;12.72;100.00
65151;BME280;51918;51.856;0.150;2023-03-22T10:21:30;99141.56;;;12.94;100.00
65151;BME280;51918;51.856;0.150;2023-03-22T10:26:36;99127.59;;;13.02;100.00
65151;BME280;51918;51.856;0.150;2023-03-22T10:31:42;99125.34;;;12.87;100.00
65151;BME280;51918;51.856;0.150;2023-03-22T10:36:43;99138.75;;;12.71;100.00
65151;BME280;51918;51.856;0.150;2023-03-22T10:41:46;99130.56;;;12.81;100.00
65151;BME280;51918;51.856;0.150;2023-03-22T10:46:49;99132.19;;;12.75;100.00
65151;BME280;51918;51.856;0.150;2023-03-22T10:51:54;99133.81;;;12.94;100.00
65151;BME280;51918;51.856;0.150;2023-03-22T10:56:56;99121.34;;;13.17;100.00
65151;BME280;51918;51.856;0.150;2023-03-22T11:01:59;99126.00;;;13.63;100.00
65151;BME280;51918;51.856;0.150;2023-03-22T11:07:00;99132.19;;;14.71;100.00
65151;BME280;51918;51.856;0.150;2023-03-22T11:12:01;99126.28;;;15.30;100.00
65151;BME280;51918;51.856;0.150;2023-03-22T11:17:09;99136.09;;;15.80;89.53
65151;BME280;51918;51.856;0.150;2023-03-22T11:22:29;99130.94;;;16.71;87.84
65151;BME280;51918;51.856;0.150;2023-03-22T11:27:33;99137.25;;;17.48;78.37
65151;BME280;51918;51.856;0.150;2023-03-22T11:33:01;99121.53;;;18.36;72.17
65151;BME280;51918;51.856;0.150;2023-03-22T11:38:24;99128.59;;;18.63;63.68
65151;BME280;51918;51.856;0.150;2023-03-22T11:43:27;99124.56;;;18.88;65.34
65151;BME280;51918;51.856;0.150;2023-03-22T11:49:07;99103.72;;;19.35;66.71
65151;BME280;51918;51.856;0.150;2023-03-22T11:54:15;99109.41;;;20.00;61.02
65151;BME280;51918;51.856;0.150;2023-03-22T11:59:56;99087.50;;;20.17;55.09
65151;BME280;51918;51.856;0.150;2023-03-22T12:05:05;99095.91;;;20.49;57.04
65151;BME280;51918;51.856;0.150;2023-03-22T12:10:12;99096.94;;;20.43;49.17
65151;BME280;51918;51.856;0.150;2023-03-22T12:15:17;99089.84;;;20.90;51.39
65151;BME280;51918;51.856;0.150;2023-03-22T12:20:40;99095.91;;;20.55;49.70
65151;BME280;51918;51.856;0.150;2023-03-22T12:25:45;99097.72;;;20.54;50.72
65151;BME280;51918;51.856;0.150;2023-03-22T12:36:14;99078.13;;;20.72;46.66
65151;BME280;51918;51.856;0.150;2023-03-22T12:41:21;99064.03;;;20.58;46.01
65151;BME280;51918;51.856;0.150;2023-03-22T12:52:30;99064.19;;;19.54;44.60
65151;BME280;51918;51.856;0.150;2023-03-22T12:57:32;99062.59;;;19.53;46.54
65151;BME280;51918;51.856;0.150;2023-03-22T13:02:34;99079.91;;;19.79;46.27
65151;BME280;51918;51.856;0.150;2023-03-22T13:07:56;99075.47;;;19.90;46.59
65151;BME280;51918;51.856;0.150;2023-03-22T13:13:31;99058.25;;;20.15;46.69
65151;BME280;51918;51.856;0.150;2023-03-22T13:18:38;99061.91;;;19.88;47.39
65151;BME280;51918;51.856;0.150;2023-03-22T13:23:59;99058.75;;;19.76;48.00
65151;BME280;51918;51.856;0.150;2023-03-22T13:29:06;99057.13;;;19.59;48.58
65151;BME280;51918;51.856;0.150;2023-03-22T13:34:16;99054.66;;;19.27;48.30
65151;BME280;51918;51.856;0.150;2023-03-22T13:39:19;99054.50;;;18.91;49.02
65151;BME280;51918;51.856;0.150;2023-03-22T13:44:26;99059.97;;;18.52;49.46
65151;BME280;51918;51.856;0.150;2023-03-22T13:49:48;99052.09;;;18.10;49.22
65151;BME280;51918;51.856;0.150;2023-03-22T13:54:55;99018.81;;;17.84;50.44
65151;BME280;51918;51.856;0.150;2023-03-22T14:00:48;99002.75;;;17.65;51.12
65151;BME280;51918;51.856;0.150;2023-03-22T14:06:02;98994.44;;;17.41;51.59
65151;BME280;51918;51.856;0.150;2023-03-22T14:11:17;98998.75;;;17.31;52.34
65151;BME280;51918;51.856;0.150;2023-03-22T14:16:26;98994.28;;;17.04;51.93
65151;BME280;51918;51.856;0.150;2023-03-22T14:21:32;98986.72;;;17.02;52.53
65151;BME280;51918;51.856;0.150;2023-03-22T14:26:36;98970.19;;;16.87;52.89
65151;BME280;51918;51.856;0.150;2023-03-22T14:31:39;98963.56;;;16.23;54.26
65151;BME280;51918;51.856;0.150;2023-03-22T14:36:41;98963.81;;;16.21;55.57
65151;BME280;51918;51.856;0.150;2023-03-22T14:42:06;98962.22;;;16.54;55.35
65151;BME280;51918;51.856;0.150;2023-03-22T14:47:11;98956.72;;;16.51;55.93
65151;BME280;51918;51.856;0.150;2023-03-22T14:52:16;98968.94;;;16.16;56.50
65151;BME280;51918;51.856;0.150;2023-03-22T14:57:19;98973.88;;;15.84;56.42
65151;BME280;51918;51.856;0.150;2023-03-22T15:02:32;98981.53;;;15.50;56.71
65151;BME280;51918;51.856;0.150;2023-03-22T15:07:43;98998.22;;;15.54;57.09
65151;BME280;51918;51.856;0.150;2023-03-22T15:12:48;99008.00;;;15.64;56.64
65151;BME280;51918;51.856;0.150;2023-03-22T15:17:49;99011.06;;;15.78;57.39
65151;BME280;51918;51.856;0.150;2023-03-22T15:22:52;99000.75;;;15.66;56.83
65151;BME280;51918;51.856;0.150;2023-03-22T15:27:54;99021.81;;;15.41;58.67
65151;BME280;51918;51.856;0.150;2023-03-22T15:33:02;99014.59;;;15.43;58.66
65151;BME280;51918;51.856;0.150;2023-03-22T15:38:03;99025.78;;;15.32;58.52
65151;BME280;51918;51.856;0.150;2023-03-22T15:43:20;99017.50;;;15.06;58.69
65151;BME280;51918;51.856;0.150;2023-03-22T15:48:21;99025.41;;;14.99;58.80
65151;BME280;51918;51.856;0.150;2023-03-22T15:53:27;99008.16;;;14.58;59.80
65151;BME280;51918;51.856;0.150;2023-03-22T15:58:31;98994.88;;;14.43;60.22
65151;BME280;51918;51.856;0.150;2023-03-22T16:03:39;99026.47;;;14.21;60.86
65151;BME280;51918;51.856;0.150;2023-03-22T16:08:40;99017.94;;;14.56;60.48
65151;BME280;51918;51.856;0.150;2023-03-22T16:13:43;98999.06;;;14.44;60.79
65151;BME280;51918;51.856;0.150;2023-03-22T16:18:43;98995.44;;;14.45;61.06
65151;BME280;51918;51.856;0.150;2023-03-22T16:23:44;98991.19;;;14.86;60.11
65151;BME280;51918;51.856;0.150;2023-03-22T16:28:46;98979.69;;;14.70;59.63
65151;BME280;51918;51.856;0.150;2023-03-22T16:33:47;98969.81;;;14.55;60.06
65151;BME280;51918;51.856;0.150;2023-03-22T16:38:48;98956.53;;;14.40;59.33
65151;BME280;51918;51.856;0.150;2023-03-22T16:43:51;98959.44;;;14.55;60.22
65151;BME280;51918;51.856;0.150;2023-03-22T16:48:52;98962.38;;;14.47;60.21
65151;BME280;51918;51.856;0.150;2023-03-22T16:53:52;98948.44;;;14.24;59.84
65151;BME280;51918;51.856;0.150;2023-03-22T16:58:55;98920.84;;;14.06;61.05
65151;BME280;51918;51.856;0.150;2023-03-22T17:03:55;98917.72;;;14.04;60.92
65151;BME280;51918;51.856;0.150;2023-03-22T17:08:56;98938.50;;;13.86;61.55
65151;BME280;51918;51.856;0.150;2023-03-22T17:13:58;98914.91;;;13.94;61.38
65151;BME280;51918;51.856;0.150;2023-03-22T17:18:59;98919.94;;;13.77;62.09
65151;BME280;51918;51.856;0.150;2023-03-22T17:23:59;98928.41;;;13.66;62.48
65151;BME280;51918;51.856;0.150;2023-03-22T17:29:02;98932.75;;;13.53;62.89
65151;BME280;51918;51.856;0.150;2023-03-22T17:34:02;98937.41;;;13.33;63.02
65151;BME280;51918;51.856;0.150;2023-03-22T17:39:03;98949.72;;;13.31;63.93
65151;BME280;51918;51.856;0.150;2023-03-22T17:44:05;98950.50;;;13.31;64.96
65151;BME280;51918;51.856;0.150;2023-03-22T17:49:06;98956.34;;;13.27;66.99
65151;BME280;51918;51.856;0.150;2023-03-22T17:54:07;98954.13;;;13.12;67.40
65151;BME280;51918;51.856;0.150;2023-03-22T17:59:09;98954.06;;;12.63;70.55
65151;BME280;51918;51.856;0.150;2023-03-22T18:04:09;98944.53;;;12.64;71.26
65151;BME280;51918;51.856;0.150;2023-03-22T18:09:10;98938.22;;;12.60;71.22
65151;BME280;51918;51.856;0.150;2023-03-22T18:14:13;98935.75;;;12.46;73.71
65151;BME280;51918;51.856;0.150;2023-03-22T18:19:15;98928.66;;;12.17;77.19
65151;BME280;51918;51.856;0.150;2023-03-22T18:24:15;98914.03;;;12.10;78.32
65151;BME280;51918;51.856;0.150;2023-03-22T18:29:17;98915.69;;;12.05;79.00
65151;BME280;51918;51.856;0.150;2023-03-22T18:34:18;98903.41;;;12.00;79.24
65151;BME280;51918;51.856;0.150;2023-03-22T18:39:19;98907.75;;;11.81;80.86
65151;BME280;51918;51.856;0.150;2023-03-22T18:44:21;98913.53;;;11.70;82.97
65151;BME280;51918;51.856;0.150;2023-03-22T18:49:21;98895.94;;;11.67;84.42
65151;BME280;51918;51.856;0.150;2023-03-22T18:54:22;98893.69;;;11.77;84.64
65151;BME280;51918;51.856;0.150;2023-03-22T18:59:24;98879.22;;;11.76;85.15
65151;BME280;51918;51.856;0.150;2023-03-22T19:04:25;98875.19;;;11.87;85.21
65151;BME280;51918;51.856;0.150;2023-03-22T19:09:26;98879.22;;;11.76;87.12
65151;BME280;51918;51.856;0.150;2023-03-22T19:14:28;98880.25;;;11.75;87.37
65151;BME280;51918;51.856;0.150;2023-03-22T19:19:28;98858.78;;;11.81;88.07
65151;BME280;51918;51.856;0.150;2023-03-22T19:24:29;98858.84;;;11.75;90.30
65151;BME280;51918;51.856;0.150;2023-03-22T19:29:31;98849.59;;;11.67;91.64
65151;BME280;51918;51.856;0.150;2023-03-22T19:34:32;98841.91;;;11.60;93.35
65151;BME280;51918;51.856;0.150;2023-03-22T19:39:32;98840.03;;;11.49;95.30
65151;BME280;51918;51.856;0.150;2023-03-22T19:44:35;98840.06;;;11.42;96.00
65151;BME280;51918;51.856;0.150;2023-03-22T19:49:36;98828.91;;;11.48;93.67
65151;BME280;51918;51.856;0.150;2023-03-22T19:54:36;98843.53;;;11.55;91.96
65151;BME280;51918;51.856;0.150;2023-03-22T19:59:38;98838.09;;;11.38;93.24
65151;BME280;51918;51.856;0.150;2023-03-22T20:04:39;98822.34;;;11.21;91.72
65151;BME280;51918;51.856;0.150;2023-03-22T20:09:39;98827.00;;;11.37;89.56
65151;BME280;51918;51.856;0.150;2023-03-22T20:14:41;98821.28;;;11.35;88.40
65151;BME280;51918;51.856;0.150;2023-03-22T20:19:42;98818.44;;;11.11;89.10
65151;BME280;51918;51.856;0.150;2023-03-22T20:24:42;98836.16;;;11.26;88.13
65151;BME280;51918;51.856;0.150;2023-03-22T20:29:45;98818.44;;;11.11;88.18
65151;BME280;51918;51.856;0.150;2023-03-22T20:34:45;98793.13;;;11.08;87.27
65151;BME280;51918;51.856;0.150;2023-03-22T20:39:46;98774.16;;;11.03;87.87
65151;BME280;51918;51.856;0.150;2023-03-22T20:44:48;98776.19;;;10.94;86.61
65151;BME280;51918;51.856;0.150;2023-03-22T20:49:49;98758.56;;;10.98;86.00
65151;BME280;51918;51.856;0.150;2023-03-22T20:54:49;98764.31;;;10.93;86.05
65151;BME280;51918;51.856;0.150;2023-03-22T20:59:51;98763.84;;;10.71;87.35
65151;BME280;51918;51.856;0.150;2023-03-22T21:04:52;98753.13;;;10.36;90.08
65151;BME280;51918;51.856;0.150;2023-03-22T21:09:53;98769.72;;;10.40;90.77
65151;BME280;51918;51.856;0.150;2023-03-22T21:14:55;98763.75;;;10.46;91.31
65151;BME280;51918;51.856;0.150;2023-03-22T21:19:55;98759.97;;;10.55;90.68
65151;BME280;51918;51.856;0.150;2023-03-22T21:24:56;98765.75;;;10.44;91.37
65151;BME280;51918;51.856;0.150;2023-03-22T21:29:58;98754.41;;;10.65;89.98
65151;BME280;51918;51.856;0.150;2023-03-22T21:34:59;98744.66;;;10.74;90.50
65151;BME280;51918;51.856;0.150;2023-03-22T21:40:00;98740.13;;;10.62;91.39
65151;BME280;51918;51.856;0.150;2023-03-22T21:45:03;98731.31;;;10.45;92.32
65151;BME280;51918;51.856;0.150;2023-03-22T21:50:04;98719.75;;;10.67;90.87
65151;BME280;51918;51.856;0.150;2023-03-22T21:55:06;98721.56;;;10.60;91.44
65151;BME280;51918;51.856;0.150;2023-03-22T22:00:08;98712.94;;;10.48;92.09
65151;BME280;51918;51.856;0.150;2023-03-22T22:05:09;98715.09;;;10.51;92.11
65151;BME280;51918;51.856;0.150;2023-03-22T22:10:10;98703.97;;;10.57;91.65
65151;BME280;51918;51.856;0.150;2023-03-22T22:15:12;98692.16;;;10.49;92.08
65151;BME280;51918;51.856;0.150;2023-03-22T22:20:14;98675.59;;;10.45;92.55
65151;BME280;51918;51.856;0.150;2023-03-22T22:25:16;98684.66;;;10.48;92.64
65151;BME280;51918;51.856;0.150;2023-03-22T22:30:18;98677.59;;;10.37;93.86
65151;BME280;51918;51.856;0.150;2023-03-22T22:35:19;98670.56;;;10.57;92.38
65151;BME280;51918;51.856;0.150;2023-03-22T22:40:20;98660.22;;;10.64;92.51
65151;BME280;51918;51.856;0.150;2023-03-22T22:45:21;98660.22;;;10.64;92.54
65151;BME280;51918;51.856;0.150;2023-03-22T22:50:22;98659.41;;;10.70;92.00
65151;BME280;51918;51.856;0.150;2023-03-22T22:55:23;98638.69;;;10.65;93.36
65151;BME280;51918;51.856;0.150;2023-03-22T23:00:25;98651.25;;;10.73;93.03
65151;BME280;51918;51.856;0.150;2023-03-22T23:05:26;98638.31;;;10.61;93.65
65151;BME280;51918;51.856;0.150;2023-03-22T23:10:27;98637.38;;;10.49;95.81
65151;BME280;51918;51.856;0.150;2023-03-22T23:15:29;98633.09;;;10.68;94.90
65151;BME280;51918;51.856;0.150;2023-03-22T23:20:30;98653.78;;;10.80;98.91
65151;BME280;51918;51.856;0.150;2023-03-22T23:25:30;98659.59;;;10.68;100.00
65151;BME280;51918;51.856;0.150;2023-03-22T23:30:34;98651.97;;;10.55;100.00
65151;BME280;51918;51.856;0.150;2023-03-22T23:35:35;98681.28;;;10.54;100.00
65151;BME280;51918;51.856;0.150;2023-03-22T23:40:36;98684.28;;;10.76;100.00
65151;BME280;51918;51.856;0.150;2023-03-22T23:45:38;98674.66;;;10.33;100.00
65151;BME280;51918;51.856;0.150;2023-03-22T23:50:38;98676.44;;;10.33;100.00
65151;BME280;51918;51.856;0.150;2023-03-22T23:55:39;98666.09;;;10.46;100.00
